createdAt,value
2022-10-09T00:01:16.800Z,19.75
2022-10-09T00:03:46.456Z,18.00
2022-10-09T00:06:16.965Z,20.50
2022-10-09T00:08:43.976Z,19.00
2022-10-09T00:11:14.309Z,21.25
2022-10-09T00:14:00.856Z,17.25
2022-10-09T00:16:29.043Z,19.25
2022-10-09T00:18:57.104Z,19.00
2022-10-09T00:21:29.688Z,18.00
2022-10-09T00:23:58.355Z,20.00
2022-10-09T00:26:25.698Z,19.25
2022-10-09T00:28:53.503Z,21.00
2022-10-09T00:31:21.143Z,21.75
2022-10-09T00:33:48.052Z,21.50
2022-10-09T00:36:18.471Z,21.00
2022-10-09T00:38:45.323Z,21.00
2022-10-09T00:41:19.275Z,21.00
2022-10-09T00:44:01.094Z,21.00
2022-10-09T00:46:41.270Z,22.00
2022-10-09T00:49:08.108Z,20.00
2022-10-09T00:51:35.236Z,20.00
2022-10-09T00:54:05.504Z,18.00
2022-10-09T00:56:33.856Z,21.00
2022-10-09T00:59:02.666Z,18.00
2022-10-09T01:01:29.579Z,17.00
2022-10-09T01:03:56.475Z,20.00
2022-10-09T01:06:29.331Z,20.25
2022-10-09T01:09:07.290Z,19.00
2022-10-09T01:11:54.984Z,18.00
2022-10-09T01:14:30.298Z,17.00
2022-10-09T01:17:05.825Z,19.00
2022-10-09T01:19:50.149Z,19.00
2022-10-09T01:22:46.092Z,19.75
2022-10-09T01:25:29.063Z,19.00
2022-10-09T01:27:57.057Z,17.00
2022-10-09T01:30:32.836Z,17.00
2022-10-09T01:32:59.862Z,20.50
2022-10-09T01:35:27.059Z,21.00
2022-10-09T01:37:56.625Z,20.00
2022-10-09T01:40:26.457Z,19.00
2022-10-09T01:42:53.743Z,17.00
2022-10-09T01:45:20.812Z,19.25
2022-10-09T01:47:47.675Z,18.00
2022-10-09T01:50:29.399Z,20.00
2022-10-09T01:53:11.008Z,20.00
2022-10-09T01:55:49.888Z,20.00
2022-10-09T01:58:22.689Z,19.50
2022-10-09T02:01:17.102Z,21.00
2022-10-09T02:03:48.930Z,21.25
2022-10-09T02:06:17.980Z,18.25
2022-10-09T02:08:46.908Z,18.00
2022-10-09T02:11:15.054Z,17.00
2022-10-09T02:13:43.890Z,17.00
2022-10-09T02:16:37.734Z,17.00
2022-10-09T02:19:12.391Z,19.50
2022-10-09T02:21:45.088Z,17.00
2022-10-09T02:24:19.010Z,19.00
2022-10-09T02:26:46.508Z,17.00
2022-10-09T02:29:14.886Z,19.50
2022-10-09T02:31:43.434Z,20.75
2022-10-09T02:34:16.063Z,20.00
2022-10-09T02:36:43.156Z,19.00
2022-10-09T02:39:10.329Z,22.00
2022-10-09T02:41:37.485Z,18.50
2022-10-09T02:44:05.695Z,19.00
2022-10-09T02:46:33.923Z,19.00
2022-10-09T02:49:00.933Z,19.00
2022-10-09T02:51:27.814Z,20.00
2022-10-09T02:53:56.021Z,20.00
2022-10-09T02:56:24.031Z,21.00
2022-10-09T02:58:50.872Z,19.00
2022-10-09T03:01:18.620Z,20.00
2022-10-09T03:03:46.349Z,21.00
2022-10-09T03:06:18.885Z,18.50
2022-10-09T03:08:47.844Z,20.00
2022-10-09T03:11:16.406Z,20.00
2022-10-09T03:13:43.552Z,17.00
2022-10-09T03:16:17.027Z,17.75
2022-10-09T03:18:44.425Z,20.00
2022-10-09T03:21:23.893Z,19.00
2022-10-09T03:23:51.246Z,20.25
2022-10-09T03:26:21.547Z,18.00
2022-10-09T03:28:50.422Z,19.25
2022-10-09T03:31:46.575Z,18.00
2022-10-09T03:34:11.213Z,17.75
2022-10-09T03:36:38.294Z,20.00
2022-10-09T03:39:05.118Z,20.00
2022-10-09T03:41:31.981Z,21.00
2022-10-09T03:43:58.794Z,20.00
2022-10-09T03:46:25.884Z,19.00
2022-10-09T03:48:52.687Z,21.00
2022-10-09T03:51:19.617Z,21.00
2022-10-09T03:53:46.403Z,18.50
2022-10-09T03:56:13.310Z,18.00
2022-10-09T03:58:40.152Z,16.00
2022-10-09T04:01:07.094Z,16.00
2022-10-09T04:03:33.935Z,18.75
2022-10-09T04:06:00.884Z,20.00
2022-10-09T04:08:27.671Z,19.00
2022-10-09T04:10:58.760Z,18.00
2022-10-09T04:13:25.810Z,20.00
2022-10-09T04:15:53.636Z,20.00
2022-10-09T04:18:20.826Z,20.50
2022-10-09T04:20:52.354Z,21.00
2022-10-09T04:23:20.661Z,19.00
2022-10-09T04:25:47.440Z,17.50
2022-10-09T04:28:14.567Z,18.00
2022-10-09T04:30:41.449Z,21.50
2022-10-09T04:33:12.743Z,19.00
2022-10-09T04:35:47.045Z,20.00
2022-10-09T04:38:13.869Z,19.00
2022-10-09T04:40:41.264Z,22.00
2022-10-09T04:43:08.316Z,21.00
2022-10-09T04:45:39.663Z,22.00
2022-10-09T04:48:06.497Z,20.25
2022-10-09T04:50:33.485Z,21.00
2022-10-09T04:53:00.393Z,20.00
2022-10-09T04:55:27.231Z,21.00
2022-10-09T04:57:54.136Z,23.00
2022-10-09T05:00:20.917Z,22.50
2022-10-09T05:02:48.201Z,23.00
2022-10-09T05:05:15.332Z,21.00
2022-10-09T05:07:44.911Z,20.00
2022-10-09T05:10:11.763Z,20.25
2022-10-09T05:12:38.772Z,21.25
2022-10-09T05:15:06.288Z,21.00
2022-10-09T05:17:34.454Z,21.00
2022-10-09T05:20:01.351Z,21.00
2022-10-09T05:22:30.096Z,21.00
2022-10-09T05:24:57.033Z,21.00
2022-10-09T05:27:23.920Z,23.25
2022-10-09T05:29:50.825Z,21.25
2022-10-09T05:32:17.708Z,21.00
2022-10-09T05:34:44.523Z,23.00
2022-10-09T05:37:11.434Z,23.00
2022-10-09T05:39:38.271Z,22.00
2022-10-09T05:42:05.550Z,22.00
2022-10-09T05:44:32.348Z,23.00
2022-10-09T05:46:59.207Z,23.00
2022-10-09T05:49:26.021Z,22.50
2022-10-09T05:51:53.605Z,22.00
2022-10-09T05:54:20.510Z,23.50
2022-10-09T05:56:47.473Z,22.00
2022-10-09T05:59:18.943Z,22.00
2022-10-09T06:01:49.099Z,23.50
2022-10-09T06:04:18.438Z,23.00
2022-10-09T06:06:46.247Z,23.00
2022-10-09T06:09:13.746Z,23.00
2022-10-09T06:11:40.853Z,23.00
2022-10-09T06:14:10.396Z,22.00
2022-10-09T06:16:40.207Z,22.50
2022-10-09T06:19:08.082Z,23.00
2022-10-09T06:21:36.660Z,23.00
2022-10-09T06:24:08.396Z,24.00
2022-10-09T06:26:35.431Z,23.00
2022-10-09T06:29:03.563Z,24.00
2022-10-09T06:31:32.772Z,23.00
2022-10-09T06:34:03.094Z,24.00
2022-10-09T06:36:32.443Z,23.00
2022-10-09T06:39:01.041Z,22.00
2022-10-09T06:41:29.301Z,23.00
2022-10-09T06:44:16.535Z,23.75
2022-10-09T06:46:45.250Z,24.00
2022-10-09T06:49:12.422Z,24.00
2022-10-09T06:51:39.640Z,24.00
2022-10-09T06:54:12.407Z,23.00
2022-10-09T06:56:39.507Z,24.00
2022-10-09T06:59:07.397Z,24.00
2022-10-09T07:01:34.939Z,24.00
2022-10-09T07:04:04.838Z,24.00
2022-10-09T07:06:32.568Z,24.00
2022-10-09T07:09:05.483Z,24.00
2022-10-09T07:11:35.552Z,24.00
2022-10-09T07:14:08.010Z,24.00
2022-10-09T07:16:57.472Z,24.00
2022-10-09T07:19:24.350Z,24.00
2022-10-09T07:21:51.150Z,24.00
2022-10-09T07:24:18.768Z,24.00
2022-10-09T07:26:46.943Z,24.00
2022-10-09T07:29:15.458Z,25.00
2022-10-09T07:31:42.237Z,25.00
2022-10-09T07:34:09.230Z,25.00
2022-10-09T07:36:36.445Z,24.00
2022-10-09T07:39:04.825Z,24.00
2022-10-09T07:42:03.920Z,24.00
2022-10-09T07:44:30.966Z,24.50
2022-10-09T07:46:57.824Z,25.00
2022-10-09T07:49:24.669Z,24.00
2022-10-09T07:51:51.516Z,25.00
2022-10-09T07:54:18.418Z,24.00
2022-10-09T07:56:45.339Z,24.00
2022-10-09T07:59:14.378Z,24.00
2022-10-09T08:01:52.804Z,24.00
2022-10-09T08:04:19.835Z,25.00
2022-10-09T08:06:46.622Z,24.00
2022-10-09T08:09:13.462Z,24.00
2022-10-09T08:11:40.275Z,24.00
2022-10-09T08:14:07.822Z,24.00
2022-10-09T08:16:34.649Z,24.75
2022-10-09T08:19:01.978Z,25.00
2022-10-09T08:21:29.466Z,25.00
2022-10-09T08:23:58.095Z,25.00
2022-10-09T08:26:26.867Z,25.00
2022-10-09T08:28:57.206Z,25.00
2022-10-09T08:31:25.220Z,25.00
2022-10-09T08:33:53.346Z,25.25
2022-10-09T08:36:20.433Z,25.50
2022-10-09T08:38:48.295Z,26.00
2022-10-09T08:41:33.382Z,25.25
2022-10-09T08:44:38.577Z,26.00
2022-10-09T08:47:17.195Z,25.00
2022-10-09T08:50:22.678Z,25.00
2022-10-09T08:52:56.993Z,24.00
2022-10-09T08:55:29.736Z,25.00
2022-10-09T08:58:00.981Z,25.00
2022-10-09T09:00:44.848Z,25.00
2022-10-09T09:03:33.343Z,25.00
2022-10-09T09:06:28.139Z,25.00
2022-10-09T09:09:08.615Z,25.00
2022-10-09T09:12:09.901Z,25.00
2022-10-09T09:14:51.159Z,25.00
2022-10-09T09:17:34.525Z,24.00
2022-10-09T09:20:22.656Z,24.00
2022-10-09T09:22:50.767Z,25.00
2022-10-09T09:25:25.071Z,24.00
2022-10-09T09:28:33.183Z,24.00
2022-10-09T09:31:07.222Z,24.00
2022-10-09T09:33:44.754Z,25.00
2022-10-09T09:36:24.044Z,25.00
2022-10-09T09:39:36.232Z,25.00
2022-10-09T09:41:41.409Z,25.00
2022-10-09T09:44:13.678Z,24.50
2022-10-09T09:46:43.654Z,25.00
2022-10-09T09:49:43.873Z,25.00
2022-10-09T09:52:10.932Z,25.00
2022-10-09T09:54:37.972Z,25.00
2022-10-09T09:57:15.802Z,25.50
2022-10-09T09:59:45.410Z,26.00
2022-10-09T10:02:23.979Z,25.00
2022-10-09T10:04:54.127Z,25.00
2022-10-09T10:07:47.318Z,25.50
2022-10-09T10:10:26.628Z,26.00
2022-10-09T10:12:54.039Z,25.00
2022-10-09T10:15:29.219Z,25.25
2022-10-09T10:18:12.399Z,26.00
2022-10-09T10:20:48.226Z,25.25
2022-10-09T10:23:25.845Z,26.00
2022-10-09T10:25:57.715Z,26.50
2022-10-09T10:28:51.210Z,26.00
2022-10-09T10:31:39.785Z,26.00
2022-10-09T10:34:25.575Z,26.00
2022-10-09T10:37:03.719Z,26.00
2022-10-09T10:39:49.981Z,26.00
2022-10-09T10:42:26.012Z,25.75
2022-10-09T10:45:00.769Z,26.00
2022-10-09T10:47:34.509Z,25.75
2022-10-09T10:50:01.828Z,26.00
2022-10-09T10:53:06.094Z,26.00
2022-10-09T10:55:54.699Z,25.00
2022-10-09T10:58:43.014Z,25.00
2022-10-09T11:01:30.784Z,25.75
2022-10-09T11:04:21.853Z,25.00
2022-10-09T11:07:18.478Z,25.00
2022-10-09T11:09:59.431Z,25.00
2022-10-09T11:12:50.100Z,25.00
2022-10-09T11:15:54.455Z,26.00
2022-10-09T11:18:42.292Z,26.00
2022-10-09T11:21:37.484Z,25.00
2022-10-09T11:24:16.116Z,27.00
2022-10-09T11:27:03.572Z,26.00
2022-10-09T11:29:43.710Z,25.00
2022-10-09T11:32:22.316Z,25.00
2022-10-09T11:35:07.249Z,25.00
2022-10-09T11:37:37.375Z,25.50
2022-10-09T11:40:16.404Z,25.00
2022-10-09T11:42:49.760Z,25.00
2022-10-09T11:45:19.488Z,25.00
2022-10-09T11:48:15.288Z,25.00
2022-10-09T11:51:20.281Z,25.00
2022-10-09T11:53:47.796Z,25.00
2022-10-09T11:56:24.149Z,25.00
2022-10-09T11:59:20.961Z,25.00
2022-10-09T12:01:47.887Z,25.00
2022-10-09T12:04:14.632Z,25.00
2022-10-09T12:07:03.244Z,24.50
2022-10-09T12:09:35.959Z,24.00
2022-10-09T12:12:28.833Z,24.50
2022-10-09T12:14:55.811Z,24.50
2022-10-09T12:17:22.544Z,25.00
2022-10-09T12:19:58.704Z,25.25
2022-10-09T12:22:35.642Z,26.00
2022-10-09T12:25:25.984Z,25.00
2022-10-09T12:27:54.707Z,25.00
2022-10-09T12:30:25.291Z,25.00
2022-10-09T12:33:31.217Z,24.00
2022-10-09T12:36:04.739Z,26.25
2022-10-09T12:38:32.893Z,25.50
2022-10-09T12:41:11.938Z,25.00
2022-10-09T12:43:45.618Z,25.00
2022-10-09T12:46:12.953Z,25.00
2022-10-09T12:48:43.175Z,25.00
2022-10-09T12:51:36.354Z,25.00
2022-10-09T12:54:26.856Z,25.00
2022-10-09T12:56:56.422Z,25.00
2022-10-09T13:00:00.074Z,25.25
2022-10-09T13:02:27.230Z,25.00
2022-10-09T13:05:00.119Z,25.00
2022-10-09T13:07:29.762Z,25.00
2022-10-09T13:10:00.139Z,26.00
2022-10-09T13:12:40.964Z,26.00
2022-10-09T13:15:34.595Z,25.00
2022-10-09T13:18:12.635Z,25.00
2022-10-09T13:20:39.703Z,25.00
2022-10-09T13:23:06.635Z,26.00
2022-10-09T13:25:40.499Z,26.00
2022-10-09T13:28:07.440Z,25.50
2022-10-09T13:30:34.328Z,25.00
2022-10-09T13:33:01.229Z,25.00
2022-10-09T13:35:28.159Z,25.00
2022-10-09T13:37:55.066Z,24.00
2022-10-09T13:40:22.038Z,25.00
2022-10-09T13:43:01.141Z,24.00
2022-10-09T13:45:28.746Z,25.00
2022-10-09T13:47:55.555Z,25.00
2022-10-09T13:50:22.443Z,24.00
2022-10-09T13:52:49.325Z,24.00
2022-10-09T13:55:28.614Z,25.00
2022-10-09T13:57:55.551Z,26.00
2022-10-09T14:00:22.785Z,25.00
2022-10-09T14:02:49.861Z,25.00
2022-10-09T14:05:16.745Z,24.00
2022-10-09T14:07:43.630Z,24.00
2022-10-09T14:10:10.967Z,24.00
2022-10-09T14:12:38.275Z,24.00
2022-10-09T14:15:06.006Z,24.50
2022-10-09T14:17:54.993Z,24.00
2022-10-09T14:20:22.244Z,24.00
2022-10-09T14:22:49.204Z,25.00
2022-10-09T14:25:16.704Z,25.00
2022-10-09T14:27:44.167Z,25.25
2022-10-09T14:30:11.730Z,26.00
2022-10-09T14:32:38.560Z,26.00
2022-10-09T14:35:05.776Z,26.00
2022-10-09T14:37:42.208Z,26.00
2022-10-09T14:40:11.030Z,26.00
2022-10-09T14:42:39.301Z,25.00
2022-10-09T14:45:32.321Z,25.00
2022-10-09T14:47:59.276Z,25.00
2022-10-09T14:50:26.181Z,27.00
2022-10-09T14:52:53.078Z,28.00
2022-10-09T14:55:19.925Z,27.00
2022-10-09T14:57:46.948Z,27.00
2022-10-09T15:00:14.269Z,26.00
2022-10-09T15:02:44.083Z,26.00
2022-10-09T15:05:10.889Z,26.00
2022-10-09T15:07:37.735Z,26.00
2022-10-09T15:10:36.807Z,26.00
2022-10-09T15:13:04.070Z,25.25
2022-10-09T15:15:32.742Z,26.00
2022-10-09T15:17:59.808Z,26.00
2022-10-09T15:20:26.985Z,27.00
2022-10-09T15:22:53.855Z,27.00
2022-10-09T15:25:20.639Z,28.00
2022-10-09T15:27:51.324Z,29.00
2022-10-09T15:30:21.253Z,29.00
2022-10-09T15:32:48.035Z,28.00
2022-10-09T15:35:14.983Z,27.00
2022-10-09T15:37:41.808Z,27.00
2022-10-09T15:40:09.296Z,28.75
2022-10-09T15:42:36.109Z,27.00
2022-10-09T15:45:04.063Z,27.00
2022-10-09T15:47:49.954Z,26.00
2022-10-09T15:50:17.654Z,28.75
2022-10-09T15:52:44.464Z,28.50
2022-10-09T15:55:11.355Z,27.75
2022-10-09T15:57:38.122Z,29.00
2022-10-09T16:00:05.698Z,29.00
2022-10-09T16:02:32.627Z,28.00
2022-10-09T16:04:59.492Z,28.00
2022-10-09T16:07:26.283Z,29.00
2022-10-09T16:09:53.182Z,29.00
2022-10-09T16:12:19.927Z,29.25
2022-10-09T16:14:46.766Z,28.00
2022-10-09T16:17:13.771Z,28.50
2022-10-09T16:19:40.653Z,27.25
2022-10-09T16:22:07.623Z,28.00
2022-10-09T16:24:34.544Z,29.00
2022-10-09T16:27:01.395Z,28.00
2022-10-09T16:29:29.992Z,28.00
2022-10-09T16:31:56.816Z,29.00
2022-10-09T16:34:23.657Z,28.00
2022-10-09T16:36:50.579Z,28.00
2022-10-09T16:39:17.601Z,29.00
2022-10-09T16:41:44.447Z,28.00
2022-10-09T16:44:14.353Z,26.00
2022-10-09T16:46:41.151Z,27.25
2022-10-09T16:49:15.512Z,28.00
2022-10-09T16:51:42.982Z,28.00
2022-10-09T16:54:10.510Z,28.00
2022-10-09T16:56:39.861Z,27.00
2022-10-09T16:59:12.295Z,27.00
2022-10-09T17:01:40.092Z,27.00
2022-10-09T17:04:06.905Z,28.00
2022-10-09T17:06:33.866Z,27.00
2022-10-09T17:09:01.517Z,26.75
2022-10-09T17:11:30.089Z,28.00
2022-10-09T17:13:57.465Z,28.00
2022-10-09T17:16:28.723Z,27.00
2022-10-09T17:18:56.096Z,26.00
2022-10-09T17:21:25.800Z,25.00
2022-10-09T17:23:56.907Z,25.00
2022-10-09T17:26:25.556Z,26.75
2022-10-09T17:28:53.242Z,25.00
2022-10-09T17:31:22.905Z,27.00
2022-10-09T17:33:55.018Z,29.00
2022-10-09T17:36:24.293Z,25.00
2022-10-09T17:38:51.729Z,25.00
2022-10-09T17:41:21.793Z,25.25
2022-10-09T17:44:10.763Z,28.00
2022-10-09T17:46:37.681Z,26.00
2022-10-09T17:49:04.489Z,25.00
2022-10-09T17:51:34.435Z,24.25
2022-10-09T17:54:05.980Z,25.00
2022-10-09T17:56:36.411Z,27.00
2022-10-09T17:59:03.975Z,25.00
2022-10-09T18:01:31.343Z,26.75
2022-10-09T18:03:58.840Z,26.50
2022-10-09T18:06:26.607Z,25.75
2022-10-09T18:08:55.311Z,25.50
2022-10-09T18:11:23.606Z,26.00
2022-10-09T18:13:50.940Z,24.25
2022-10-09T18:16:21.380Z,25.00
2022-10-09T18:18:48.664Z,25.00
2022-10-09T18:21:16.824Z,24.50
2022-10-09T18:23:45.544Z,24.00
2022-10-09T18:26:15.433Z,26.50
2022-10-09T18:28:44.752Z,26.50
2022-10-09T18:31:21.251Z,27.00
2022-10-09T18:34:23.959Z,26.00
2022-10-09T18:36:50.975Z,24.50
2022-10-09T18:39:18.817Z,25.75
2022-10-09T18:41:45.653Z,26.00
2022-10-09T18:44:16.492Z,27.00
2022-10-09T18:46:51.425Z,26.25
2022-10-09T18:49:21.202Z,27.00
2022-10-09T18:51:49.024Z,25.50
2022-10-09T18:54:19.236Z,27.00
2022-10-09T18:56:46.937Z,25.00
2022-10-09T18:59:44.505Z,24.50
2022-10-09T19:02:11.367Z,25.00
2022-10-09T19:05:01.090Z,24.50
2022-10-09T19:07:28.033Z,24.75
2022-10-09T19:09:57.375Z,25.00
2022-10-09T19:12:25.065Z,25.00
2022-10-09T19:14:52.299Z,24.00
2022-10-09T19:17:19.361Z,25.00
2022-10-09T19:19:46.143Z,24.00
2022-10-09T19:22:16.443Z,24.00
2022-10-09T19:24:44.728Z,24.00
2022-10-09T19:27:11.748Z,24.00
2022-10-09T19:29:38.891Z,24.00
2022-10-09T19:32:34.829Z,24.00
2022-10-09T19:35:01.803Z,25.00
2022-10-09T19:37:29.861Z,24.00
2022-10-09T19:39:57.089Z,24.50
2022-10-09T19:42:23.961Z,26.50
2022-10-09T19:44:50.876Z,24.00
2022-10-09T19:47:17.672Z,26.25
2022-10-09T19:50:03.255Z,24.50
2022-10-09T19:52:30.247Z,24.50
2022-10-09T19:54:57.197Z,24.50
2022-10-09T19:57:24.084Z,24.50
2022-10-09T19:59:50.892Z,25.50
2022-10-09T20:02:17.864Z,24.00
2022-10-09T20:04:49.184Z,25.00
2022-10-09T20:07:16.187Z,25.00
2022-10-09T20:09:43.285Z,25.00
2022-10-09T20:12:10.235Z,25.00
2022-10-09T20:14:37.142Z,24.50
2022-10-09T20:17:04.076Z,25.00
2022-10-09T20:19:30.893Z,25.25
2022-10-09T20:21:58.007Z,25.00
2022-10-09T20:24:24.895Z,24.00
2022-10-09T20:26:51.739Z,24.75
2022-10-09T20:29:18.805Z,24.00
2022-10-09T20:31:45.725Z,23.00
2022-10-09T20:34:12.542Z,24.00
2022-10-09T20:36:39.480Z,23.00
2022-10-09T20:39:15.931Z,22.00
2022-10-09T20:41:43.329Z,22.25
2022-10-09T20:44:11.571Z,23.25
2022-10-09T20:46:39.704Z,23.00
2022-10-09T20:49:10.648Z,23.00
2022-10-09T20:51:38.753Z,23.00
2022-10-09T20:54:07.092Z,24.00
2022-10-09T20:56:34.498Z,24.00
2022-10-09T20:59:01.925Z,23.00
2022-10-09T21:01:29.221Z,23.00
2022-10-09T21:03:57.790Z,24.50
2022-10-09T21:06:25.180Z,23.00
2022-10-09T21:08:52.032Z,22.00
2022-10-09T21:11:19.471Z,23.50
2022-10-09T21:13:46.820Z,23.00
2022-10-09T21:16:16.682Z,23.00
2022-10-09T21:18:43.600Z,24.00
2022-10-09T21:21:19.499Z,23.00
2022-10-09T21:23:51.011Z,24.00
2022-10-09T21:26:19.849Z,24.00
2022-10-09T21:28:47.156Z,23.00
2022-10-09T21:31:23.023Z,23.00
2022-10-09T21:33:52.107Z,23.00
2022-10-09T21:36:30.992Z,25.00
2022-10-09T21:38:59.159Z,23.00
2022-10-09T21:41:27.661Z,23.00
2022-10-09T21:43:54.931Z,23.00
2022-10-09T21:46:21.872Z,24.00
2022-10-09T21:48:48.817Z,24.00
2022-10-09T21:51:15.707Z,24.00
2022-10-09T21:53:43.276Z,25.00
2022-10-09T21:56:10.532Z,24.50
2022-10-09T21:58:38.820Z,24.00
2022-10-09T22:01:06.995Z,23.00
2022-10-09T22:03:36.351Z,24.00
2022-10-09T22:06:09.293Z,24.00
2022-10-09T22:08:36.328Z,25.00
2022-10-09T22:11:07.937Z,24.75
2022-10-09T22:13:34.967Z,24.50
2022-10-09T22:16:06.494Z,24.00
2022-10-09T22:18:34.046Z,25.00
2022-10-09T22:21:07.268Z,24.00
2022-10-09T22:23:34.747Z,23.00
2022-10-09T22:26:05.938Z,23.00
2022-10-09T22:28:33.376Z,22.00
2022-10-09T22:31:23.444Z,23.25
2022-10-09T22:33:55.745Z,24.00
2022-10-09T22:36:24.093Z,24.00
2022-10-09T22:38:54.500Z,24.00
2022-10-09T22:41:22.704Z,24.00
2022-10-09T22:43:51.731Z,23.00
2022-10-09T22:46:31.330Z,24.00
2022-10-09T22:48:58.583Z,23.00
2022-10-09T22:51:27.753Z,23.00
2022-10-09T22:53:56.047Z,22.00
2022-10-09T22:56:29.390Z,21.00
2022-10-09T22:58:56.575Z,21.00
2022-10-09T23:01:29.091Z,23.25
2022-10-09T23:04:00.482Z,24.00
2022-10-09T23:06:27.544Z,24.00
2022-10-09T23:08:54.436Z,23.00
2022-10-09T23:11:22.478Z,23.25
2022-10-09T23:13:57.064Z,24.00
2022-10-09T23:16:25.235Z,25.00
2022-10-09T23:18:52.029Z,24.00
2022-10-09T23:21:21.706Z,24.00
2022-10-09T23:23:50.611Z,25.00
2022-10-09T23:26:30.356Z,25.00
2022-10-09T23:29:00.617Z,24.00
2022-10-09T23:31:28.530Z,25.00
2022-10-09T23:33:55.989Z,25.00
2022-10-09T23:36:24.772Z,26.75
2022-10-09T23:38:51.761Z,27.00
2022-10-09T23:41:21.705Z,25.00
2022-10-09T23:43:52.989Z,24.00
2022-10-09T23:46:22.773Z,24.00
2022-10-09T23:48:51.179Z,24.00
2022-10-09T23:51:19.864Z,25.00
2022-10-09T23:53:47.367Z,24.00
2022-10-09T23:56:26.707Z,24.00
2022-10-09T23:58:55.051Z,24.00
